sensor_id;sensor_type;location;lat;lon;timestamp;temperature;humidity
37002;DHT22;22913;51.910;8.374;2022-12-07T00:00:34;5.20;99.90
37002;DHT22;22913;51.910;8.374;2022-12-07T00:03:20;5.20;99.90
37002;DHT22;22913;51.910;8.374;2022-12-07T00:06:07;5.20;99.90
37002;DHT22;22913;51.910;8.374;2022-12-07T00:08:54;5.20;99.90
37002;DHT22;22913;51.910;8.374;2022-12-07T00:11:40;5.20;99.90
37002;DHT22;22913;51.910;8.374;2022-12-07T00:14:27;5.20;99.90
37002;DHT22;22913;51.910;8.374;2022-12-07T00:17:13;5.20;99.90
37002;DHT22;22913;51.910;8.374;2022-12-07T00:19:59;5.20;99.90
37002;DHT22;22913;51.910;8.374;2022-12-07T00:22:44;5.30;99.90
37002;DHT22;22913;51.910;8.374;2022-12-07T00:25:30;5.30;99.90
37002;DHT22;22913;51.910;8.374;2022-12-07T00:28:15;5.30;99.90
37002;DHT22;22913;51.910;8.374;2022-12-07T00:31:05;5.30;99.90
37002;DHT22;22913;51.910;8.374;2022-12-07T00:33:54;5.30;99.90
37002;DHT22;22913;51.910;8.374;2022-12-07T00:36:40;5.30;99.90
37002;DHT22;22913;51.910;8.374;2022-12-07T00:39:26;5.40;99.90
37002;DHT22;22913;51.910;8.374;2022-12-07T00:42:12;5.30;99.90
37002;DHT22;22913;51.910;8.374;2022-12-07T00:44:58;5.40;99.90
37002;DHT22;22913;51.910;8.374;2022-12-07T00:47:46;5.30;99.90
37002;DHT22;22913;51.910;8.374;2022-12-07T00:50:35;5.40;99.90
37002;DHT22;22913;51.910;8.374;2022-12-07T00:53:22;5.40;99.90
37002;DHT22;22913;51.910;8.374;2022-12-07T00:56:11;5.40;99.90
37002;DHT22;22913;51.910;8.374;2022-12-07T00:59:00;5.40;99.90
37002;DHT22;22913;51.910;8.374;2022-12-07T01:01:46;5.50;99.90
37002;DHT22;22913;51.910;8.374;2022-12-07T01:04:35;5.40;99.90
37002;DHT22;22913;51.910;8.374;2022-12-07T01:07:20;5.40;99.90
37002;DHT22;22913;51.910;8.374;2022-12-07T01:10:07;5.40;99.90
37002;DHT22;22913;51.910;8.374;2022-12-07T01:12:53;5.50;99.90
37002;DHT22;22913;51.910;8.374;2022-12-07T01:15:39;5.50;99.90
37002;DHT22;22913;51.910;8.374;2022-12-07T01:18:25;5.40;99.90
37002;DHT22;22913;51.910;8.374;2022-12-07T01:21:14;5.50;99.90
37002;DHT22;22913;51.910;8.374;2022-12-07T01:24:01;5.50;99.90
37002;DHT22;22913;51.910;8.374;2022-12-07T01:26:48;5.50;99.90
37002;DHT22;22913;51.910;8.374;2022-12-07T01:29:35;5.60;99.90
37002;DHT22;22913;51.910;8.374;2022-12-07T01:32:20;5.50;99.90
37002;DHT22;22913;51.910;8.374;2022-12-07T01:35:07;5.60;99.90
37002;DHT22;22913;51.910;8.374;2022-12-07T01:37:54;5.50;99.90
37002;DHT22;22913;51.910;8.374;2022-12-07T01:40:40;5.50;99.90
37002;DHT22;22913;51.910;8.374;2022-12-07T01:43:27;5.50;99.90
37002;DHT22;22913;51.910;8.374;2022-12-07T01:46:13;5.60;99.90
37002;DHT22;22913;51.910;8.374;2022-12-07T01:48:59;5.60;99.90
37002;DHT22;22913;51.910;8.374;2022-12-07T01:51:46;5.60;99.90
37002;DHT22;22913;51.910;8.374;2022-12-07T01:54:35;5.60;99.90
37002;DHT22;22913;51.910;8.374;2022-12-07T01:57:21;5.60;99.90
37002;DHT22;22913;51.910;8.374;2022-12-07T02:00:09;5.60;99.90
37002;DHT22;22913;51.910;8.374;2022-12-07T02:02:59;5.60;99.90
37002;DHT22;22913;51.910;8.374;2022-12-07T02:05:46;5.60;99.90
37002;DHT22;22913;51.910;8.374;2022-12-07T02:08:34;5.60;99.90
37002;DHT22;22913;51.910;8.374;2022-12-07T02:11:21;5.60;99.90
37002;DHT22;22913;51.910;8.374;2022-12-07T02:14:08;5.60;99.90
37002;DHT22;22913;51.910;8.374;2022-12-07T02:17:04;5.60;99.90
37002;DHT22;22913;51.910;8.374;2022-12-07T02:20:17;5.70;99.90
37002;DHT22;22913;51.910;8.374;2022-12-07T02:23:37;5.60;99.90
37002;DHT22;22913;51.910;8.374;2022-12-07T02:29:58;5.50;99.90
37002;DHT22;22913;51.910;8.374;2022-12-07T02:32:51;5.60;99.90
37002;DHT22;22913;51.910;8.374;2022-12-07T02:35:42;5.50;99.90
37002;DHT22;22913;51.910;8.374;2022-12-07T02:38:35;5.50;99.90
37002;DHT22;22913;51.910;8.374;2022-12-07T02:41:25;5.60;99.90
37002;DHT22;22913;51.910;8.374;2022-12-07T02:44:14;5.60;99.90
37002;DHT22;22913;51.910;8.374;2022-12-07T02:47:06;5.60;99.90
37002;DHT22;22913;51.910;8.374;2022-12-07T02:49:55;5.60;99.90
37002;DHT22;22913;51.910;8.374;2022-12-07T02:52:41;5.50;99.90
37002;DHT22;22913;51.910;8.374;2022-12-07T02:55:31;5.40;99.90
37002;DHT22;22913;51.910;8.374;2022-12-07T02:58:30;5.40;99.90
37002;DHT22;22913;51.910;8.374;2022-12-07T03:01:28;5.50;99.90
37002;DHT22;22913;51.910;8.374;2022-12-07T03:04:27;5.50;99.90
37002;DHT22;22913;51.910;8.374;2022-12-07T03:07:24;5.50;99.90
37002;DHT22;22913;51.910;8.374;2022-12-07T03:10:18;5.40;99.90
37002;DHT22;22913;51.910;8.374;2022-12-07T03:13:11;5.40;99.90
37002;DHT22;22913;51.910;8.374;2022-12-07T03:16:03;5.40;99.90
37002;DHT22;22913;51.910;8.374;2022-12-07T03:18:53;5.30;99.90
37002;DHT22;22913;51.910;8.374;2022-12-07T03:21:44;5.20;99.90
37002;DHT22;22913;51.910;8.374;2022-12-07T03:24:37;5.20;99.90
37002;DHT22;22913;51.910;8.374;2022-12-07T03:27:26;5.20;99.90
37002;DHT22;22913;51.910;8.374;2022-12-07T03:30:16;5.20;99.90
37002;DHT22;22913;51.910;8.374;2022-12-07T03:33:06;5.20;99.90
37002;DHT22;22913;51.910;8.374;2022-12-07T03:35:57;5.20;99.90
37002;DHT22;22913;51.910;8.374;2022-12-07T03:38:49;5.20;99.90
37002;DHT22;22913;51.910;8.374;2022-12-07T03:41:37;5.20;99.90
37002;DHT22;22913;51.910;8.374;2022-12-07T03:44:24;5.20;99.90
37002;DHT22;22913;51.910;8.374;2022-12-07T03:47:13;5.10;99.90
37002;DHT22;22913;51.910;8.374;2022-12-07T03:50:07;5.10;99.90
37002;DHT22;22913;51.910;8.374;2022-12-07T03:52:56;5.00;99.90
37002;DHT22;22913;51.910;8.374;2022-12-07T03:55:47;5.00;99.90
37002;DHT22;22913;51.910;8.374;2022-12-07T03:58:34;4.90;99.90
37002;DHT22;22913;51.910;8.374;2022-12-07T04:01:20;4.90;99.90
37002;DHT22;22913;51.910;8.374;2022-12-07T04:04:07;4.90;99.90
37002;DHT22;22913;51.910;8.374;2022-12-07T04:06:53;4.90;99.90
37002;DHT22;22913;51.910;8.374;2022-12-07T04:09:39;4.80;99.90
37002;DHT22;22913;51.910;8.374;2022-12-07T04:12:26;4.80;99.90
37002;DHT22;22913;51.910;8.374;2022-12-07T04:15:12;4.70;99.90
37002;DHT22;22913;51.910;8.374;2022-12-07T04:17:58;4.70;99.90
37002;DHT22;22913;51.910;8.374;2022-12-07T04:20:45;4.60;99.90
37002;DHT22;22913;51.910;8.374;2022-12-07T04:23:31;4.50;99.90
37002;DHT22;22913;51.910;8.374;2022-12-07T04:26:16;4.40;99.90
37002;DHT22;22913;51.910;8.374;2022-12-07T04:29:05;4.40;99.90
37002;DHT22;22913;51.910;8.374;2022-12-07T04:31:52;4.50;99.90
37002;DHT22;22913;51.910;8.374;2022-12-07T04:34:37;4.50;99.90
37002;DHT22;22913;51.910;8.374;2022-12-07T04:37:23;4.50;99.90
37002;DHT22;22913;51.910;8.374;2022-12-07T04:40:10;4.50;99.90
37002;DHT22;22913;51.910;8.374;2022-12-07T04:42:57;4.50;99.90
37002;DHT22;22913;51.910;8.374;2022-12-07T04:45:47;4.50;99.90
37002;DHT22;22913;51.910;8.374;2022-12-07T04:48:32;4.50;99.90
37002;DHT22;22913;51.910;8.374;2022-12-07T04:51:20;4.50;99.90
37002;DHT22;22913;51.910;8.374;2022-12-07T04:54:05;4.40;99.90
37002;DHT22;22913;51.910;8.374;2022-12-07T04:56:51;4.30;99.90
37002;DHT22;22913;51.910;8.374;2022-12-07T04:59:37;4.30;99.90
37002;DHT22;22913;51.910;8.374;2022-12-07T05:02:24;4.30;99.90
37002;DHT22;22913;51.910;8.374;2022-12-07T05:05:10;4.20;99.90
37002;DHT22;22913;51.910;8.374;2022-12-07T05:07:56;4.20;99.90
37002;DHT22;22913;51.910;8.374;2022-12-07T05:10:41;4.20;99.90
37002;DHT22;22913;51.910;8.374;2022-12-07T05:13:28;4.20;99.90
37002;DHT22;22913;51.910;8.374;2022-12-07T05:16:13;4.20;99.90
37002;DHT22;22913;51.910;8.374;2022-12-07T05:19:01;4.20;99.90
37002;DHT22;22913;51.910;8.374;2022-12-07T05:21:47;4.20;99.90
37002;DHT22;22913;51.910;8.374;2022-12-07T05:24:33;4.20;99.90
37002;DHT22;22913;51.910;8.374;2022-12-07T05:27:19;4.10;99.90
37002;DHT22;22913;51.910;8.374;2022-12-07T05:30:06;4.10;99.90
37002;DHT22;22913;51.910;8.374;2022-12-07T05:32:52;4.10;99.90
37002;DHT22;22913;51.910;8.374;2022-12-07T05:35:39;4.10;99.90
37002;DHT22;22913;51.910;8.374;2022-12-07T05:38:25;4.00;99.90
37002;DHT22;22913;51.910;8.374;2022-12-07T05:41:13;4.10;99.90
37002;DHT22;22913;51.910;8.374;2022-12-07T05:44:13;4.00;99.90
37002;DHT22;22913;51.910;8.374;2022-12-07T05:46:59;4.10;99.90
37002;DHT22;22913;51.910;8.374;2022-12-07T05:49:45;4.00;99.90
37002;DHT22;22913;51.910;8.374;2022-12-07T05:52:32;4.00;99.90
37002;DHT22;22913;51.910;8.374;2022-12-07T05:55:17;4.10;99.90
37002;DHT22;22913;51.910;8.374;2022-12-07T05:58:03;4.00;99.90
37002;DHT22;22913;51.910;8.374;2022-12-07T06:01:06;4.10;99.90
37002;DHT22;22913;51.910;8.374;2022-12-07T06:03:53;4.00;99.90
37002;DHT22;22913;51.910;8.374;2022-12-07T06:06:39;4.00;99.90
37002;DHT22;22913;51.910;8.374;2022-12-07T06:09:27;4.00;99.90
37002;DHT22;22913;51.910;8.374;2022-12-07T06:12:13;4.00;99.90
37002;DHT22;22913;51.910;8.374;2022-12-07T06:15:17;4.00;99.90
37002;DHT22;22913;51.910;8.374;2022-12-07T06:18:03;4.00;99.90
37002;DHT22;22913;51.910;8.374;2022-12-07T06:20:48;4.00;99.90
37002;DHT22;22913;51.910;8.374;2022-12-07T06:23:34;3.90;99.90
37002;DHT22;22913;51.910;8.374;2022-12-07T06:26:21;4.00;99.90
37002;DHT22;22913;51.910;8.374;2022-12-07T06:29:07;3.90;99.90
37002;DHT22;22913;51.910;8.374;2022-12-07T06:31:53;4.00;99.90
37002;DHT22;22913;51.910;8.374;2022-12-07T06:34:39;3.90;99.90
37002;DHT22;22913;51.910;8.374;2022-12-07T06:37:25;3.80;99.90
37002;DHT22;22913;51.910;8.374;2022-12-07T06:40:11;3.80;99.90
37002;DHT22;22913;51.910;8.374;2022-12-07T06:42:58;3.80;99.90
37002;DHT22;22913;51.910;8.374;2022-12-07T06:45:44;3.80;99.90
37002;DHT22;22913;51.910;8.374;2022-12-07T06:48:30;3.70;99.90
37002;DHT22;22913;51.910;8.374;2022-12-07T06:51:15;3.60;99.90
37002;DHT22;22913;51.910;8.374;2022-12-07T06:54:01;3.50;99.90
37002;DHT22;22913;51.910;8.374;2022-12-07T06:56:46;3.50;99.90
37002;DHT22;22913;51.910;8.374;2022-12-07T06:59:33;3.50;99.90
37002;DHT22;22913;51.910;8.374;2022-12-07T07:02:19;3.40;99.90
37002;DHT22;22913;51.910;8.374;2022-12-07T07:05:04;3.40;99.90
37002;DHT22;22913;51.910;8.374;2022-12-07T07:07:50;3.40;99.90
37002;DHT22;22913;51.910;8.374;2022-12-07T07:10:36;3.30;99.90
37002;DHT22;22913;51.910;8.374;2022-12-07T07:13:22;3.30;99.90
37002;DHT22;22913;51.910;8.374;2022-12-07T07:16:09;3.30;99.90
37002;DHT22;22913;51.910;8.374;2022-12-07T07:18:55;3.30;99.90
37002;DHT22;22913;51.910;8.374;2022-12-07T07:21:40;3.30;99.90
37002;DHT22;22913;51.910;8.374;2022-12-07T07:24:26;3.30;99.90
37002;DHT22;22913;51.910;8.374;2022-12-07T07:27:12;3.30;99.90
37002;DHT22;22913;51.910;8.374;2022-12-07T07:29:58;3.30;99.90
37002;DHT22;22913;51.910;8.374;2022-12-07T07:32:45;3.30;99.90
37002;DHT22;22913;51.910;8.374;2022-12-07T07:35:32;3.20;99.90
37002;DHT22;22913;51.910;8.374;2022-12-07T07:38:17;3.20;99.90
37002;DHT22;22913;51.910;8.374;2022-12-07T07:41:03;3.20;99.90
37002;DHT22;22913;51.910;8.374;2022-12-07T07:43:49;3.20;99.90
37002;DHT22;22913;51.910;8.374;2022-12-07T07:46:34;3.20;99.90
37002;DHT22;22913;51.910;8.374;2022-12-07T07:49:22;3.20;99.90
37002;DHT22;22913;51.910;8.374;2022-12-07T07:52:07;3.10;99.90
37002;DHT22;22913;51.910;8.374;2022-12-07T07:54:53;3.10;99.90
37002;DHT22;22913;51.910;8.374;2022-12-07T07:57:40;3.10;99.90
37002;DHT22;22913;51.910;8.374;2022-12-07T08:00:26;3.10;99.90
37002;DHT22;22913;51.910;8.374;2022-12-07T08:03:11;3.10;99.90
37002;DHT22;22913;51.910;8.374;2022-12-07T08:05:59;3.10;99.90
37002;DHT22;22913;51.910;8.374;2022-12-07T08:08:44;3.10;99.90
37002;DHT22;22913;51.910;8.374;2022-12-07T08:11:30;3.10;99.90
37002;DHT22;22913;51.910;8.374;2022-12-07T08:14:16;3.10;99.90
37002;DHT22;22913;51.910;8.374;2022-12-07T08:17:01;3.00;99.90
37002;DHT22;22913;51.910;8.374;2022-12-07T08:19:47;3.10;99.90
37002;DHT22;22913;51.910;8.374;2022-12-07T08:22:34;3.10;99.90
37002;DHT22;22913;51.910;8.374;2022-12-07T08:25:20;3.10;99.90
37002;DHT22;22913;51.910;8.374;2022-12-07T08:28:06;3.00;99.90
37002;DHT22;22913;51.910;8.374;2022-12-07T08:30:51;3.00;99.90
37002;DHT22;22913;51.910;8.374;2022-12-07T08:33:37;3.10;99.90
37002;DHT22;22913;51.910;8.374;2022-12-07T08:36:23;3.10;99.90
37002;DHT22;22913;51.910;8.374;2022-12-07T08:39:10;3.10;99.90
37002;DHT22;22913;51.910;8.374;2022-12-07T08:41:55;3.20;99.90
37002;DHT22;22913;51.910;8.374;2022-12-07T08:44:41;3.20;99.90
37002;DHT22;22913;51.910;8.374;2022-12-07T08:47:26;3.30;99.90
37002;DHT22;22913;51.910;8.374;2022-12-07T08:50:12;3.30;99.90
37002;DHT22;22913;51.910;8.374;2022-12-07T08:53:00;3.30;99.90
37002;DHT22;22913;51.910;8.374;2022-12-07T08:55:48;3.30;99.90
37002;DHT22;22913;51.910;8.374;2022-12-07T08:58:36;3.30;99.90
37002;DHT22;22913;51.910;8.374;2022-12-07T09:01:22;3.30;99.90
37002;DHT22;22913;51.910;8.374;2022-12-07T09:04:08;3.30;99.90
37002;DHT22;22913;51.910;8.374;2022-12-07T09:06:54;3.30;99.90
37002;DHT22;22913;51.910;8.374;2022-12-07T09:09:40;3.30;99.90
37002;DHT22;22913;51.910;8.374;2022-12-07T09:12:27;3.40;99.90
37002;DHT22;22913;51.910;8.374;2022-12-07T09:15:12;3.50;99.90
37002;DHT22;22913;51.910;8.374;2022-12-07T09:17:58;3.50;99.90
37002;DHT22;22913;51.910;8.374;2022-12-07T09:20:44;3.50;99.90
37002;DHT22;22913;51.910;8.374;2022-12-07T09:23:30;3.60;99.90
37002;DHT22;22913;51.910;8.374;2022-12-07T09:26:15;3.60;99.90
37002;DHT22;22913;51.910;8.374;2022-12-07T09:29:03;3.70;99.90
37002;DHT22;22913;51.910;8.374;2022-12-07T09:31:48;3.70;99.90
37002;DHT22;22913;51.910;8.374;2022-12-07T09:34:34;3.90;99.90
37002;DHT22;22913;51.910;8.374;2022-12-07T09:37:19;4.00;99.90
37002;DHT22;22913;51.910;8.374;2022-12-07T09:40:06;4.10;99.90
37002;DHT22;22913;51.910;8.374;2022-12-07T09:42:54;4.20;99.90
37002;DHT22;22913;51.910;8.374;2022-12-07T09:45:41;4.30;99.90
37002;DHT22;22913;51.910;8.374;2022-12-07T09:48:31;4.40;99.90
37002;DHT22;22913;51.910;8.374;2022-12-07T09:51:18;4.50;99.90
37002;DHT22;22913;51.910;8.374;2022-12-07T09:54:04;4.60;99.90
37002;DHT22;22913;51.910;8.374;2022-12-07T09:56:50;4.70;99.90
37002;DHT22;22913;51.910;8.374;2022-12-07T09:59:36;4.80;99.90
37002;DHT22;22913;51.910;8.374;2022-12-07T10:02:35;4.70;99.90
37002;DHT22;22913;51.910;8.374;2022-12-07T10:05:24;4.80;99.90
37002;DHT22;22913;51.910;8.374;2022-12-07T10:08:12;4.80;99.90
37002;DHT22;22913;51.910;8.374;2022-12-07T10:10:58;4.80;99.90
37002;DHT22;22913;51.910;8.374;2022-12-07T10:13:50;4.90;99.90
37002;DHT22;22913;51.910;8.374;2022-12-07T10:16:39;5.00;99.90
37002;DHT22;22913;51.910;8.374;2022-12-07T10:19:27;5.00;99.90
37002;DHT22;22913;51.910;8.374;2022-12-07T10:22:16;4.90;99.90
37002;DHT22;22913;51.910;8.374;2022-12-07T10:25:08;4.80;99.90
37002;DHT22;22913;51.910;8.374;2022-12-07T10:28:02;4.90;99.90
37002;DHT22;22913;51.910;8.374;2022-12-07T10:30:52;4.90;99.90
37002;DHT22;22913;51.910;8.374;2022-12-07T10:33:40;5.00;99.90
37002;DHT22;22913;51.910;8.374;2022-12-07T10:36:36;5.00;99.90
37002;DHT22;22913;51.910;8.374;2022-12-07T10:39:23;5.00;99.90
37002;DHT22;22913;51.910;8.374;2022-12-07T10:42:16;5.00;99.90
37002;DHT22;22913;51.910;8.374;2022-12-07T10:45:12;5.30;99.90
37002;DHT22;22913;51.910;8.374;2022-12-07T10:48:03;5.60;99.90
37002;DHT22;22913;51.910;8.374;2022-12-07T10:51:01;6.10;99.90
37002;DHT22;22913;51.910;8.374;2022-12-07T10:53:58;6.60;99.90
37002;DHT22;22913;51.910;8.374;2022-12-07T11:00:12;6.60;99.90
37002;DHT22;22913;51.910;8.374;2022-12-07T11:03:23;6.90;99.90
37002;DHT22;22913;51.910;8.374;2022-12-07T11:06:19;6.80;99.90
37002;DHT22;22913;51.910;8.374;2022-12-07T11:09:36;6.60;99.90
37002;DHT22;22913;51.910;8.374;2022-12-07T11:12:32;6.30;99.90
37002;DHT22;22913;51.910;8.374;2022-12-07T11:15:22;6.00;99.90
37002;DHT22;22913;51.910;8.374;2022-12-07T11:18:13;6.00;99.90
37002;DHT22;22913;51.910;8.374;2022-12-07T11:21:07;6.00;99.90
37002;DHT22;22913;51.910;8.374;2022-12-07T11:24:01;5.70;99.90
37002;DHT22;22913;51.910;8.374;2022-12-07T11:27:10;5.70;99.90
37002;DHT22;22913;51.910;8.374;2022-12-07T11:30:12;5.70;99.90
37002;DHT22;22913;51.910;8.374;2022-12-07T11:33:09;5.80;99.90
37002;DHT22;22913;51.910;8.374;2022-12-07T11:36:04;5.80;99.90
37002;DHT22;22913;51.910;8.374;2022-12-07T11:38:56;5.70;99.90
37002;DHT22;22913;51.910;8.374;2022-12-07T11:41:43;5.70;99.90
37002;DHT22;22913;51.910;8.374;2022-12-07T11:44:36;5.80;99.90
37002;DHT22;22913;51.910;8.374;2022-12-07T11:47:30;5.90;99.90
37002;DHT22;22913;51.910;8.374;2022-12-07T11:50:27;6.10;99.90
37002;DHT22;22913;51.910;8.374;2022-12-07T11:53:17;6.20;99.90
37002;DHT22;22913;51.910;8.374;2022-12-07T11:56:08;6.30;99.90
37002;DHT22;22913;51.910;8.374;2022-12-07T11:58:57;6.50;99.90
37002;DHT22;22913;51.910;8.374;2022-12-07T12:01:53;7.00;99.90
37002;DHT22;22913;51.910;8.374;2022-12-07T12:04:47;7.20;99.90
37002;DHT22;22913;51.910;8.374;2022-12-07T12:07:34;7.10;99.90
37002;DHT22;22913;51.910;8.374;2022-12-07T12:10:24;7.00;99.90
37002;DHT22;22913;51.910;8.374;2022-12-07T12:13:44;7.00;99.90
37002;DHT22;22913;51.910;8.374;2022-12-07T12:16:49;6.70;99.90
37002;DHT22;22913;51.910;8.374;2022-12-07T12:19:40;6.60;99.90
37002;DHT22;22913;51.910;8.374;2022-12-07T12:22:34;7.30;99.90
37002;DHT22;22913;51.910;8.374;2022-12-07T12:25:24;7.90;99.90
37002;DHT22;22913;51.910;8.374;2022-12-07T12:28:22;8.40;99.90
37002;DHT22;22913;51.910;8.374;2022-12-07T12:31:12;8.80;99.90
37002;DHT22;22913;51.910;8.374;2022-12-07T12:34:01;9.20;99.90
37002;DHT22;22913;51.910;8.374;2022-12-07T12:36:47;9.00;99.90
37002;DHT22;22913;51.910;8.374;2022-12-07T12:39:32;8.50;99.90
37002;DHT22;22913;51.910;8.374;2022-12-07T12:42:18;8.20;99.90
37002;DHT22;22913;51.910;8.374;2022-12-07T12:45:18;7.80;99.90
37002;DHT22;22913;51.910;8.374;2022-12-07T12:48:09;7.50;99.90
37002;DHT22;22913;51.910;8.374;2022-12-07T12:51:40;7.30;99.90
37002;DHT22;22913;51.910;8.374;2022-12-07T12:54:27;7.20;99.90
37002;DHT22;22913;51.910;8.374;2022-12-07T12:57:16;7.10;99.90
37002;DHT22;22913;51.910;8.374;2022-12-07T13:00:16;7.00;99.90
37002;DHT22;22913;51.910;8.374;2022-12-07T13:03:02;7.00;99.90
37002;DHT22;22913;51.910;8.374;2022-12-07T13:05:48;7.20;99.90
37002;DHT22;22913;51.910;8.374;2022-12-07T13:08:36;7.10;99.90
37002;DHT22;22913;51.910;8.374;2022-12-07T13:11:29;7.00;99.90
37002;DHT22;22913;51.910;8.374;2022-12-07T13:14:51;6.80;99.90
37002;DHT22;22913;51.910;8.374;2022-12-07T13:18:01;6.80;99.90
37002;DHT22;22913;51.910;8.374;2022-12-07T13:20:49;6.70;99.90
37002;DHT22;22913;51.910;8.374;2022-12-07T13:23:38;6.70;99.90
37002;DHT22;22913;51.910;8.374;2022-12-07T13:26:33;6.70;99.90
37002;DHT22;22913;51.910;8.374;2022-12-07T13:29:20;6.80;99.90
37002;DHT22;22913;51.910;8.374;2022-12-07T13:32:23;6.80;99.90
37002;DHT22;22913;51.910;8.374;2022-12-07T13:35:32;7.10;99.90
37002;DHT22;22913;51.910;8.374;2022-12-07T13:38:25;7.70;99.90
37002;DHT22;22913;51.910;8.374;2022-12-07T13:41:16;8.50;99.90
37002;DHT22;22913;51.910;8.374;2022-12-07T13:44:07;8.80;99.90
37002;DHT22;22913;51.910;8.374;2022-12-07T13:46:59;8.70;99.90
37002;DHT22;22913;51.910;8.374;2022-12-07T13:49:48;8.50;99.90
37002;DHT22;22913;51.910;8.374;2022-12-07T13:52:43;8.50;99.90
37002;DHT22;22913;51.910;8.374;2022-12-07T13:55:30;8.20;99.90
37002;DHT22;22913;51.910;8.374;2022-12-07T13:58:17;7.90;99.90
37002;DHT22;22913;51.910;8.374;2022-12-07T14:01:03;7.40;99.90
37002;DHT22;22913;51.910;8.374;2022-12-07T14:03:48;7.20;99.90
37002;DHT22;22913;51.910;8.374;2022-12-07T14:06:34;7.00;99.90
37002;DHT22;22913;51.910;8.374;2022-12-07T14:09:21;6.90;99.90
37002;DHT22;22913;51.910;8.374;2022-12-07T14:12:07;6.90;99.90
37002;DHT22;22913;51.910;8.374;2022-12-07T14:14:55;6.80;99.90
37002;DHT22;22913;51.910;8.374;2022-12-07T14:17:50;6.70;99.90
37002;DHT22;22913;51.910;8.374;2022-12-07T14:20:38;6.60;99.90
37002;DHT22;22913;51.910;8.374;2022-12-07T14:23:25;6.50;99.90
37002;DHT22;22913;51.910;8.374;2022-12-07T14:26:12;6.30;99.90
37002;DHT22;22913;51.910;8.374;2022-12-07T14:29:28;6.30;99.90
37002;DHT22;22913;51.910;8.374;2022-12-07T14:32:23;6.20;99.90
37002;DHT22;22913;51.910;8.374;2022-12-07T14:35:13;6.20;99.90
37002;DHT22;22913;51.910;8.374;2022-12-07T14:38:00;6.10;99.90
37002;DHT22;22913;51.910;8.374;2022-12-07T14:40:45;6.00;99.90
37002;DHT22;22913;51.910;8.374;2022-12-07T14:43:31;6.00;99.90
37002;DHT22;22913;51.910;8.374;2022-12-07T14:46:16;5.90;99.90
37002;DHT22;22913;51.910;8.374;2022-12-07T14:49:03;5.90;99.90
37002;DHT22;22913;51.910;8.374;2022-12-07T14:51:49;5.90;99.90
37002;DHT22;22913;51.910;8.374;2022-12-07T14:54:35;5.80;99.90
37002;DHT22;22913;51.910;8.374;2022-12-07T14:57:20;5.70;99.90
37002;DHT22;22913;51.910;8.374;2022-12-07T15:00:07;5.70;99.90
37002;DHT22;22913;51.910;8.374;2022-12-07T15:02:53;5.70;99.90
37002;DHT22;22913;51.910;8.374;2022-12-07T15:05:40;5.50;99.90
37002;DHT22;22913;51.910;8.374;2022-12-07T15:08:26;5.50;99.90
37002;DHT22;22913;51.910;8.374;2022-12-07T15:11:16;5.40;99.90
37002;DHT22;22913;51.910;8.374;2022-12-07T15:14:01;5.40;99.90
37002;DHT22;22913;51.910;8.374;2022-12-07T15:16:52;5.40;99.90
37002;DHT22;22913;51.910;8.374;2022-12-07T15:19:38;5.30;99.90
37002;DHT22;22913;51.910;8.374;2022-12-07T15:22:25;5.30;99.90
37002;DHT22;22913;51.910;8.374;2022-12-07T15:25:13;5.20;99.90
37002;DHT22;22913;51.910;8.374;2022-12-07T15:27:59;5.10;99.90
37002;DHT22;22913;51.910;8.374;2022-12-07T15:30:45;5.00;99.90
37002;DHT22;22913;51.910;8.374;2022-12-07T15:33:30;5.10;99.90
37002;DHT22;22913;51.910;8.374;2022-12-07T15:36:19;5.10;99.90
37002;DHT22;22913;51.910;8.374;2022-12-07T15:39:07;5.00;99.90
37002;DHT22;22913;51.910;8.374;2022-12-07T15:41:53;5.00;99.90
37002;DHT22;22913;51.910;8.374;2022-12-07T15:44:39;5.00;99.90
37002;DHT22;22913;51.910;8.374;2022-12-07T15:47:43;5.00;99.90
37002;DHT22;22913;51.910;8.374;2022-12-07T15:50:29;5.00;99.90
37002;DHT22;22913;51.910;8.374;2022-12-07T15:53:15;4.90;99.90
37002;DHT22;22913;51.910;8.374;2022-12-07T15:56:06;4.80;99.90
37002;DHT22;22913;51.910;8.374;2022-12-07T15:58:52;4.80;99.90
37002;DHT22;22913;51.910;8.374;2022-12-07T16:01:37;4.90;99.90
37002;DHT22;22913;51.910;8.374;2022-12-07T16:04:23;4.80;99.90
37002;DHT22;22913;51.910;8.374;2022-12-07T16:07:09;4.80;99.90
37002;DHT22;22913;51.910;8.374;2022-12-07T16:09:55;4.80;99.90
37002;DHT22;22913;51.910;8.374;2022-12-07T16:12:43;4.80;99.90
37002;DHT22;22913;51.910;8.374;2022-12-07T16:15:29;4.80;99.90
37002;DHT22;22913;51.910;8.374;2022-12-07T16:18:14;4.70;99.90
37002;DHT22;22913;51.910;8.374;2022-12-07T16:21:00;4.80;99.90
37002;DHT22;22913;51.910;8.374;2022-12-07T16:23:45;4.80;99.90
37002;DHT22;22913;51.910;8.374;2022-12-07T16:26:31;4.80;99.90
37002;DHT22;22913;51.910;8.374;2022-12-07T16:29:19;4.80;99.90
37002;DHT22;22913;51.910;8.374;2022-12-07T16:32:05;4.80;99.90
37002;DHT22;22913;51.910;8.374;2022-12-07T16:34:50;4.80;99.90
37002;DHT22;22913;51.910;8.374;2022-12-07T16:37:36;4.80;99.90
37002;DHT22;22913;51.910;8.374;2022-12-07T16:40:21;4.70;99.90
37002;DHT22;22913;51.910;8.374;2022-12-07T16:43:14;4.70;99.90
37002;DHT22;22913;51.910;8.374;2022-12-07T16:46:02;4.70;99.90
37002;DHT22;22913;51.910;8.374;2022-12-07T16:48:48;4.70;99.90
37002;DHT22;22913;51.910;8.374;2022-12-07T16:51:33;4.60;99.90
37002;DHT22;22913;51.910;8.374;2022-12-07T16:54:21;4.60;99.90
37002;DHT22;22913;51.910;8.374;2022-12-07T16:57:06;4.70;99.90
37002;DHT22;22913;51.910;8.374;2022-12-07T16:59:52;4.60;99.90
37002;DHT22;22913;51.910;8.374;2022-12-07T17:02:39;4.60;99.90
37002;DHT22;22913;51.910;8.374;2022-12-07T17:05:24;4.60;99.90
37002;DHT22;22913;51.910;8.374;2022-12-07T17:08:12;4.60;99.90
37002;DHT22;22913;51.910;8.374;2022-12-07T17:10:58;4.60;99.90
37002;DHT22;22913;51.910;8.374;2022-12-07T17:13:44;4.60;99.90
37002;DHT22;22913;51.910;8.374;2022-12-07T17:16:58;4.60;99.90
37002;DHT22;22913;51.910;8.374;2022-12-07T17:19:45;4.50;99.90
37002;DHT22;22913;51.910;8.374;2022-12-07T17:22:30;4.60;99.90
37002;DHT22;22913;51.910;8.374;2022-12-07T17:25:17;4.60;99.90
37002;DHT22;22913;51.910;8.374;2022-12-07T17:28:03;4.60;99.90
37002;DHT22;22913;51.910;8.374;2022-12-07T17:30:48;4.60;99.90
37002;DHT22;22913;51.910;8.374;2022-12-07T17:33:34;4.70;99.90
37002;DHT22;22913;51.910;8.374;2022-12-07T17:36:23;4.60;99.90
37002;DHT22;22913;51.910;8.374;2022-12-07T17:39:10;4.60;99.90
37002;DHT22;22913;51.910;8.374;2022-12-07T17:41:57;4.50;99.90
37002;DHT22;22913;51.910;8.374;2022-12-07T17:45:00;4.50;99.90
37002;DHT22;22913;51.910;8.374;2022-12-07T17:47:45;4.60;99.90
37002;DHT22;22913;51.910;8.374;2022-12-07T17:50:31;4.50;99.90
37002;DHT22;22913;51.910;8.374;2022-12-07T17:53:35;4.50;99.90
37002;DHT22;22913;51.910;8.374;2022-12-07T17:56:21;4.40;99.90
37002;DHT22;22913;51.910;8.374;2022-12-07T17:59:07;4.50;99.90
37002;DHT22;22913;51.910;8.374;2022-12-07T18:01:52;4.50;99.90
37002;DHT22;22913;51.910;8.374;2022-12-07T18:04:38;4.50;99.90
37002;DHT22;22913;51.910;8.374;2022-12-07T18:07:25;4.50;99.90
37002;DHT22;22913;51.910;8.374;2022-12-07T18:10:12;4.50;99.90